Eagle San Antonio — 9V9330 — position and weather

sailwx.info

Track history (hours):
 
Tides and Currents Weather Stations Pressure Air Temp Water Temp Dewpoint Dewpoint Depression Visibility Wind Speed Wind Dir Waves Ship Positions

Eagle San Antonio

Last reported at 2015-Mar-14 19:17 UTC. Time now 2015-Mar-28 04:01 UTC.
Position N 06°48' W 015°56'.
Warning: this ship's position is 13 days out of date.

Length 274 m; draft 9.3 m.

Type: Tanker. MMSI: 566453000.

Date/timePositionNaut miles runAvg speedWind from/ knotsBaromVisibWave heightAir tempDewpointWater temp
2015-Mar-14 19:17N 06°48' W 015°56'1415.3
2015-Mar-14 18:23N 06°58' W 016°05'  
2015-Mar-10 22:32N 26°14' W 014°50'1414.2
2015-Mar-10 21:33N 26°26' W 014°42'1813.7
2015-Mar-10 20:17N 26°41' W 014°32'1013.7
2015-Mar-10 19:33N 26°49' W 014°25'2013.5
2015-Mar-10 18:03N 27°06' W 014°13'713.9
2015-Mar-10 17:33N 27°12' W 014°10'1414.0
2015-Mar-10 16:33N 27°24' W 014°01'1313.5
2015-Mar-10 15:33N 27°36' W 013°53'1413.7
2015-Mar-10 14:33N 27°47' W 013°45'1313.1
2015-Mar-10 13:33N 27°58' W 013°37'1813.0
2015-Mar-10 12:11N 28°13' W 013°26'3412.9
2015-Mar-10 09:33N 28°42' W 013°05'2913.3
2015-Mar-10 07:22N 29°06' W 012°48'1713.4
2015-Mar-10 06:07N 29°20' W 012°38'6113.4
2015-Mar-10 01:33N 30°13' W 012°01'4212.9
2015-Mar-09 22:17N 30°48' W 011°34'3913.2
2015-Mar-09 19:18N 31°21' W 011°09'1013.3
2015-Mar-09 18:33N 31°29' W 011°03'3912.9
2015-Mar-09 15:33N 32°02' W 010°38'1312.9
2015-Mar-09 14:32N 32°14' W 010°31'2913.2
2015-Mar-09 12:22N 32°37' W 010°12'2413.2
2015-Mar-09 10:33N 32°58' W 009°57'1512.9
2015-Mar-09 09:22N 33°11' W 009°47'3612.9
2015-Mar-09 06:33N 33°37' W 009°17'1313.1
2015-Mar-09 05:33N 33°46' W 009°06'2912.9
2015-Mar-09 03:19N 34°06' W 008°40'8712.6
2015-Mar-08 20:23N 35°05' W 007°23'1212.9
2015-Mar-08 19:28N 35°14' W 007°13'1212.8
2015-Mar-08 18:34N 35°21' W 007°01'1312.8
2015-Mar-08 17:33N 35°27' W 006°48'6613.2
2015-Mar-08 12:33N 35°58' W 005°36'1211.6
2015-Mar-08 11:33N 36°01' W 005°22'1211.4
2015-Mar-08 10:32N 36°03' W 005°08'16612.6
2015-Mar-07 21:22N 36°39' W 001°47'1712.8
2015-Mar-07 20:03N 36°49' W 001°30'612.6
2015-Mar-07 19:33N 36°53' W 001°24'1312.9
2015-Mar-07 18:33N 37°01' W 001°11'1312.6
2015-Mar-07 17:33N 37°08' W 000°58'1212.4
2015-Mar-07 16:33N 37°15' W 000°45'1212.4
2015-Mar-07 15:33N 37°22' W 000°33'1312.6
2015-Mar-07 14:33N 37°30' W 000°20'1212.2
2015-Mar-07 13:33N 37°38' W 000°08'1212.3
2015-Mar-07 12:32N 37°43' E 000°06'1212.3
2015-Mar-07 11:33N 37°53' E 000°16'1212.4
2015-Mar-07 10:33N 38°05' E 000°20'1312.9
2015-Mar-07 09:32N 38°17' E 000°25'3013.2
2015-Mar-07 07:17N 38°45' E 000°38'1413.0
2015-Mar-07 06:12N 38°59' E 000°44'2112.7
2015-Mar-07 04:33N 39°17' E 000°56'1512.7
2015-Mar-07 03:24N 39°28' E 001°09'2412.7
2015-Mar-07 01:33N 39°45' E 001°30'1313.0
2015-Mar-07 00:33N 39°55' E 001°41'1212.4
2015-Mar-06 23:33N 40°04' E 001°52'1312.8
2015-Mar-06 22:33N 40°13' E 002°04'1212.4
2015-Mar-06 21:33N 40°22' E 002°15'2512.5
2015-Mar-06 19:33N 40°41' E 002°37'1212.0
2015-Mar-06 18:33N 40°49' E 002°48'1512.9
2015-Mar-06 17:24N 41°00' E 003°01'1112.2
2015-Mar-06 16:32N 41°08' E 003°11'1312.5
2015-Mar-06 15:31N 41°17' E 003°22'1312.6
2015-Mar-06 14:31N 41°26' E 003°34'1213.0
2015-Mar-06 13:33N 41°35' E 003°46'1313.2
2015-Mar-06 12:32N 41°45' E 003°58'1212.6
2015-Mar-06 11:33N 41°54' E 004°09'1312.7
2015-Mar-06 10:33N 42°04' E 004°20'1312.6
2015-Mar-06 09:34N 42°13' E 004°32'1212.4
2015-Mar-06 08:33N 42°24' E 004°39'1312.7
2015-Mar-06 07:33N 42°36' E 004°47'1312.8
2015-Mar-06 06:33N 42°47' E 004°55'1312.6
2015-Mar-06 05:33N 42°59' E 005°00'1313.4
2015-Mar-06 04:34N 43°12' E 005°01'1211.7
2015-Mar-06 03:33N 43°24' E 004°56'2 1.7
2015-Mar-06 02:28N 43°24' E 004°53'0 0.0
2015-Mar-06 01:31N 43°24' E 004°53'0 0.0
2015-Mar-06 00:31N 43°24' E 004°53'0 0.0
2015-Mar-05 23:28N 43°24' E 004°53'0 0.0
2015-Mar-05 22:28N 43°24' E 004°53'0 0.0
2015-Mar-05 21:31N 43°24' E 004°53'0 0.0
2015-Mar-05 20:28N 43°24' E 004°53'0 0.0
2015-Mar-05 19:25N 43°24' E 004°53'0 0.0
2015-Mar-05 18:28N 43°24' E 004°53'0 0.0
2015-Mar-05 17:28N 43°24' E 004°53'0 0.0
2015-Mar-05 16:31N 43°24' E 004°53'0 0.0
2015-Mar-05 15:31N 43°24' E 004°53'0 0.0
2015-Mar-05 14:28N 43°24' E 004°53'0 0.0
2015-Mar-05 13:31N 43°24' E 004°53'0 0.0
2015-Mar-05 12:31N 43°24' E 004°53'0 0.0
2015-Mar-05 11:28N 43°24' E 004°53'0 0.0
2015-Mar-05 10:22N 43°24' E 004°53'0 0.0
2015-Mar-05 09:22N 43°24' E 004°53'0 0.0
2015-Mar-05 08:28N 43°24' E 004°53'0 0.0
2015-Mar-05 07:31N 43°24' E 004°53'0 0.0
2015-Mar-05 06:25N 43°24' E 004°53'0 0.0
2015-Mar-05 05:31N 43°24' E 004°53'0 0.0
2015-Mar-05 04:28N 43°24' E 004°53'0 0.0
2015-Mar-05 03:31N 43°24' E 004°53'0 0.0
2015-Mar-05 02:31N 43°24' E 004°53'0 0.0
2015-Mar-05 01:31N 43°24' E 004°53'0 0.0
2015-Mar-05 00:28N 43°24' E 004°53'0 0.0
2015-Mar-04 23:31N 43°24' E 004°53'0 0.0
2015-Mar-04 22:28N 43°24' E 004°53'0 0.0
2015-Mar-04 21:31N 43°24' E 004°53'0 0.0
2015-Mar-04 20:31N 43°24' E 004°53'0 0.0
2015-Mar-04 19:25N 43°24' E 004°53'  
Track history (hours):
 
Tides and Currents Weather Stations Pressure Air Temp Water Temp Dewpoint Dewpoint Depression Visibility Wind Speed Wind Dir Waves Ship Positions

Eagle San Antonio

Last reported at 2015-Mar-14 19:17 UTC. Time now 2015-Mar-28 04:01 UTC.
Position N 06°48' W 015°56'.
Warning: this ship's position is 13 days out of date.

Length 274 m; draft 9.3 m.

Type: Tanker. MMSI: 566453000.

Date/timePositionNaut miles runAvg speedWind from/ knotsBaromVisibWave heightAir tempDewpointWater temp
2015-Mar-14 19:17N 06°48' W 015°56'1415.3
2015-Mar-14 18:23N 06°58' W 016°05'  
2015-Mar-10 22:32N 26°14' W 014°50'1414.2
2015-Mar-10 21:33N 26°26' W 014°42'1813.7
2015-Mar-10 20:17N 26°41' W 014°32'1013.7
2015-Mar-10 19:33N 26°49' W 014°25'2013.5
2015-Mar-10 18:03N 27°06' W 014°13'713.9
2015-Mar-10 17:33N 27°12' W 014°10'1414.0
2015-Mar-10 16:33N 27°24' W 014°01'1313.5
2015-Mar-10 15:33N 27°36' W 013°53'1413.7
2015-Mar-10 14:33N 27°47' W 013°45'1313.1
2015-Mar-10 13:33N 27°58' W 013°37'1813.0
2015-Mar-10 12:11N 28°13' W 013°26'3412.9
2015-Mar-10 09:33N 28°42' W 013°05'2913.3
2015-Mar-10 07:22N 29°06' W 012°48'1713.4
2015-Mar-10 06:07N 29°20' W 012°38'6113.4
2015-Mar-10 01:33N 30°13' W 012°01'4212.9
2015-Mar-09 22:17N 30°48' W 011°34'3913.2
2015-Mar-09 19:18N 31°21' W 011°09'1013.3
2015-Mar-09 18:33N 31°29' W 011°03'3912.9
2015-Mar-09 15:33N 32°02' W 010°38'1312.9
2015-Mar-09 14:32N 32°14' W 010°31'2913.2
2015-Mar-09 12:22N 32°37' W 010°12'2413.2
2015-Mar-09 10:33N 32°58' W 009°57'1512.9
2015-Mar-09 09:22N 33°11' W 009°47'3612.9
2015-Mar-09 06:33N 33°37' W 009°17'1313.1
2015-Mar-09 05:33N 33°46' W 009°06'2912.9
2015-Mar-09 03:19N 34°06' W 008°40'8712.6
2015-Mar-08 20:23N 35°05' W 007°23'1212.9
2015-Mar-08 19:28N 35°14' W 007°13'1212.8
2015-Mar-08 18:34N 35°21' W 007°01'1312.8
2015-Mar-08 17:33N 35°27' W 006°48'6613.2
2015-Mar-08 12:33N 35°58' W 005°36'1211.6
2015-Mar-08 11:33N 36°01' W 005°22'1211.4
2015-Mar-08 10:32N 36°03' W 005°08'16612.6
2015-Mar-07 21:22N 36°39' W 001°47'1712.8
2015-Mar-07 20:03N 36°49' W 001°30'612.6
2015-Mar-07 19:33N 36°53' W 001°24'1312.9
2015-Mar-07 18:33N 37°01' W 001°11'1312.6
2015-Mar-07 17:33N 37°08' W 000°58'1212.4
2015-Mar-07 16:33N 37°15' W 000°45'1212.4
2015-Mar-07 15:33N 37°22' W 000°33'1312.6
2015-Mar-07 14:33N 37°30' W 000°20'1212.2
2015-Mar-07 13:33N 37°38' W 000°08'1212.3
2015-Mar-07 12:32N 37°43' E 000°06'1212.3
2015-Mar-07 11:33N 37°53' E 000°16'1212.4
2015-Mar-07 10:33N 38°05' E 000°20'1312.9
2015-Mar-07 09:32N 38°17' E 000°25'3013.2
2015-Mar-07 07:17N 38°45' E 000°38'1413.0
2015-Mar-07 06:12N 38°59' E 000°44'2112.7
2015-Mar-07 04:33N 39°17' E 000°56'1512.7
2015-Mar-07 03:24N 39°28' E 001°09'2412.7
2015-Mar-07 01:33N 39°45' E 001°30'1313.0
2015-Mar-07 00:33N 39°55' E 001°41'1212.4
2015-Mar-06 23:33N 40°04' E 001°52'1312.8
2015-Mar-06 22:33N 40°13' E 002°04'1212.4
2015-Mar-06 21:33N 40°22' E 002°15'2512.5
2015-Mar-06 19:33N 40°41' E 002°37'1212.0
2015-Mar-06 18:33N 40°49' E 002°48'1512.9
2015-Mar-06 17:24N 41°00' E 003°01'1112.2
2015-Mar-06 16:32N 41°08' E 003°11'1312.5
2015-Mar-06 15:31N 41°17' E 003°22'1312.6
2015-Mar-06 14:31N 41°26' E 003°34'1213.0
2015-Mar-06 13:33N 41°35' E 003°46'1313.2
2015-Mar-06 12:32N 41°45' E 003°58'1212.6
2015-Mar-06 11:33N 41°54' E 004°09'1312.7
2015-Mar-06 10:33N 42°04' E 004°20'1312.6
2015-Mar-06 09:34N 42°13' E 004°32'1212.4
2015-Mar-06 08:33N 42°24' E 004°39'1312.7
2015-Mar-06 07:33N 42°36' E 004°47'1312.8
2015-Mar-06 06:33N 42°47' E 004°55'1312.6
2015-Mar-06 05:33N 42°59' E 005°00'1313.4
2015-Mar-06 04:34N 43°12' E 005°01'1211.7
2015-Mar-06 03:33N 43°24' E 004°56'2 1.7
2015-Mar-06 02:28N 43°24' E 004°53'0 0.0
2015-Mar-06 01:31N 43°24' E 004°53'0 0.0
2015-Mar-06 00:31N 43°24' E 004°53'0 0.0
2015-Mar-05 23:28N 43°24' E 004°53'0 0.0
2015-Mar-05 22:28N 43°24' E 004°53'0 0.0
2015-Mar-05 21:31N 43°24' E 004°53'0 0.0
2015-Mar-05 20:28N 43°24' E 004°53'0 0.0
2015-Mar-05 19:25N 43°24' E 004°53'0 0.0
2015-Mar-05 18:28N 43°24' E 004°53'0 0.0
2015-Mar-05 17:28N 43°24' E 004°53'0 0.0
2015-Mar-05 16:31N 43°24' E 004°53'0 0.0
2015-Mar-05 15:31N 43°24' E 004°53'0 0.0
2015-Mar-05 14:28N 43°24' E 004°53'0 0.0
2015-Mar-05 13:31N 43°24' E 004°53'0 0.0
2015-Mar-05 12:31N 43°24' E 004°53'0 0.0
2015-Mar-05 11:28N 43°24' E 004°53'0 0.0
2015-Mar-05 10:22N 43°24' E 004°53'0 0.0
2015-Mar-05 09:22N 43°24' E 004°53'0 0.0
2015-Mar-05 08:28N 43°24' E 004°53'0 0.0
2015-Mar-05 07:31N 43°24' E 004°53'0 0.0
2015-Mar-05 06:25N 43°24' E 004°53'0 0.0
2015-Mar-05 05:31N 43°24' E 004°53'0 0.0
2015-Mar-05 04:28N 43°24' E 004°53'0 0.0
2015-Mar-05 03:31N 43°24' E 004°53'0 0.0
2015-Mar-05 02:31N 43°24' E 004°53'0 0.0
2015-Mar-05 01:31N 43°24' E 004°53'0 0.0
2015-Mar-05 00:28N 43°24' E 004°53'0 0.0
2015-Mar-04 23:31N 43°24' E 004°53'0 0.0
2015-Mar-04 22:28N 43°24' E 004°53'0 0.0
2015-Mar-04 21:31N 43°24' E 004°53'0 0.0
2015-Mar-04 20:31N 43°24' E 004°53'0 0.0
2015-Mar-04 19:25N 43°24' E 004°53'  

Dump ship's entire track history